Time;durP1;ratioP1;P1;durP2;ratioP2;P2;SDS_P1;SDS_P2;PMS_P1;PMS_P2;Temp;Humidity;BMP_temperature;BMP_pressure;BME280_temperature;BME280_humidity;BME280_pressure;Samples;Min_cycle;Max_cycle;Signal;HPM_P1;HPM_P2
2021/09/11 00:00:25;;;;;;;6.17;5.67;;;;;;;19.91;82.17;100709.91;5068562;28;20222;-70
2021/09/11 00:02:52;;;;;;;6.63;5.70;;;;;;;19.90;82.15;100708.19;5066754;28;20236;-70
2021/09/11 00:05:21;;;;;;;7.17;6.47;;;;;;;19.91;82.40;100714.47;5064133;28;20215;-71
2021/09/11 00:07:48;;;;;;;6.23;5.73;;;;;;;19.88;82.35;100702.13;5067188;28;20215;-71
2021/09/11 00:10:14;;;;;;;6.77;6.20;;;;;;;19.87;82.66;100705.00;5068417;28;20202;-70
2021/09/11 00:12:41;;;;;;;7.37;5.87;;;;;;;19.87;82.80;100713.94;5064863;28;20696;-70
2021/09/11 00:15:11;;;;;;;7.30;6.70;;;;;;;19.85;83.01;100697.03;5061270;28;20211;-70
2021/09/11 00:17:37;;;;;;;7.53;6.83;;;;;;;19.85;83.25;100701.59;5067965;28;20202;-70
2021/09/11 00:20:08;;;;;;;6.87;6.20;;;;;;;19.84;83.22;100700.75;5066387;28;20232;-70
2021/09/11 00:22:34;;;;;;;8.03;7.23;;;;;;;19.82;83.37;100705.44;5068592;28;20223;-69
2021/09/11 00:25:01;;;;;;;8.00;7.30;;;;;;;19.82;83.39;100705.44;5063396;28;20201;-69
2021/09/11 00:27:27;;;;;;;7.97;7.27;;;;;;;19.81;83.30;100702.91;5062022;28;20217;-69
2021/09/11 00:29:54;;;;;;;8.13;7.33;;;;;;;19.81;83.47;100701.03;5067787;28;20209;-70
2021/09/11 00:32:20;;;;;;;8.07;7.37;;;;;;;19.80;83.75;100693.94;5068748;28;20238;-70
2021/09/11 00:34:47;;;;;;;7.90;7.10;;;;;;;19.79;83.51;100689.53;5067212;28;20233;-71
2021/09/11 00:37:15;;;;;;;8.40;7.60;;;;;;;19.79;83.76;100689.53;5065980;28;20215;-70
2021/09/11 00:39:42;;;;;;;8.80;7.53;;;;;;;19.77;83.60;100686.13;5065186;28;20233;-70
2021/09/11 00:42:08;;;;;;;9.23;8.43;;;;;;;19.75;83.84;100697.09;5068315;28;20231;-70
2021/09/11 00:44:35;;;;;;;8.40;7.70;;;;;;;19.74;83.74;100694.56;5064319;28;20205;-69
2021/09/11 00:47:02;;;;;;;8.83;7.90;;;;;;;19.73;84.18;100692.84;5067925;28;20207;-70
2021/09/11 00:49:28;;;;;;;9.67;8.07;;;;;;;19.72;83.96;100693.84;5059491;28;20681;-71
2021/09/11 00:51:55;;;;;;;10.17;9.10;;;;;;;19.71;84.02;100686.75;5069400;28;20246;-70
2021/09/11 00:54:23;;;;;;;9.97;8.97;;;;;;;19.69;84.11;100688.78;5072921;28;20204;-70
2021/09/11 00:56:50;;;;;;;10.80;8.90;;;;;;;19.68;84.11;100690.63;5062342;28;20203;-70
2021/09/11 00:59:17;;;;;;;10.10;9.10;;;;;;;19.67;84.09;100691.63;5068531;28;20232;-70
2021/09/11 01:01:44;;;;;;;10.30;9.20;;;;;;;19.67;84.21;100691.63;5070030;28;20624;-70
2021/09/11 01:04:10;;;;;;;10.30;9.33;;;;;;;19.66;84.26;100689.09;5070172;28;20234;-70
2021/09/11 01:06:37;;;;;;;9.87;8.97;;;;;;;19.65;84.26;100690.94;5068452;28;20824;-70
2021/09/11 01:09:03;;;;;;;10.67;9.50;;;;;;;19.65;84.18;100695.50;5071682;28;20208;-71
2021/09/11 01:11:32;;;;;;;10.83;9.83;;;;;;;19.64;84.45;100694.66;5067458;28;20224;-70
2021/09/11 01:13:59;;;;;;;10.17;9.27;;;;;;;19.63;84.23;100690.25;5071971;28;20209;-70
2021/09/11 01:16:26;;;;;;;11.40;10.27;;;;;;;19.63;84.45;100694.78;5070951;28;20210;-70
2021/09/11 01:18:52;;;;;;;10.57;9.57;;;;;;;19.64;84.30;100691.09;5071832;28;20699;-70
2021/09/11 01:21:19;;;;;;;10.57;9.57;;;;;;;19.64;84.44;100699.19;5071933;28;20230;-70
2021/09/11 01:23:47;;;;;;;12.03;9.97;;;;;;;19.64;84.78;100691.09;5070041;28;20587;-70
2021/09/11 01:26:14;;;;;;;10.77;9.77;;;;;;;19.65;84.61;100692.78;5066902;28;20585;-70
2021/09/11 01:28:41;;;;;;;11.77;10.37;;;;;;;19.65;84.69;100692.78;5067882;28;20206;-70
2021/09/11 01:31:08;;;;;;;10.27;9.37;;;;;;;19.65;84.81;100698.19;5071150;28;20227;-70
2021/09/11 01:33:34;;;;;;;12.00;10.83;;;;;;;19.64;84.74;100697.34;5068310;28;20668;-71
2021/09/11 01:36:01;;;;;;;12.57;11.27;;;;;;;19.63;84.87;100701.06;5070077;28;20199;-70
2021/09/11 01:38:27;;;;;;;12.30;11.20;;;;;;;19.64;84.86;100697.34;5070914;28;20208;-70
2021/09/11 01:40:55;;;;;;;12.10;11.10;;;;;;;19.63;84.70;100692.94;5068779;28;20695;-70
2021/09/11 01:43:28;;;;;;;12.17;11.07;;;;;;;19.63;84.76;100692.94;5070802;28;20209;-70
2021/09/11 01:45:55;;;;;;;11.63;10.43;;;;;;;19.60;84.73;100698.66;5068506;28;20199;-70
2021/09/11 01:48:22;;;;;;;13.17;11.93;;;;;;;19.61;84.82;100702.19;5066020;28;20681;-69
2021/09/11 01:50:48;;;;;;;13.73;12.23;;;;;;;19.59;84.92;100704.19;5072536;28;20209;-69
2021/09/11 01:53:15;;;;;;;13.10;11.97;;;;;;;19.58;84.95;100702.50;5066525;28;20216;-70
2021/09/11 01:55:42;;;;;;;13.57;12.27;;;;;;;19.56;84.97;100705.34;5076909;28;20203;-70
2021/09/11 01:58:10;;;;;;;13.83;12.53;;;;;;;19.55;84.94;100703.66;5065395;28;20203;-70
2021/09/11 02:00:36;;;;;;;12.77;11.47;;;;;;;19.53;84.98;100699.41;5065408;28;20235;-70
2021/09/11 02:03:03;;;;;;;13.70;12.50;;;;;;;19.54;84.96;100703.81;5070248;28;20218;-70
2021/09/11 02:05:29;;;;;;;13.00;11.80;;;;;;;19.52;85.06;100709.41;5064804;28;20216;-70
2021/09/11 02:07:56;;;;;;;13.23;11.70;;;;;;;19.50;85.07;100707.84;5070271;28;20207;-70
2021/09/11 02:10:22;;;;;;;13.87;11.07;;;;;;;19.51;84.97;100709.53;5069684;28;20282;-70
2021/09/11 02:12:49;;;;;;;12.90;11.60;;;;;;;19.49;85.27;100712.38;5064741;28;20250;-70
2021/09/11 02:15:17;;;;;;;12.70;11.40;;;;;;;19.49;85.07;100717.75;5064205;28;20786;-70
2021/09/11 02:17:44;;;;;;;11.83;10.73;;;;;;;19.47;84.81;100714.38;5067059;28;20232;-70
2021/09/11 02:20:11;;;;;;;11.50;10.50;;;;;;;19.46;84.90;100717.22;5070267;28;20228;-71
2021/09/11 02:22:37;;;;;;;12.40;11.30;;;;;;;19.43;85.09;100713.81;5069714;28;20234;-70
2021/09/11 02:25:05;;;;;;;11.50;10.50;;;;;;;19.43;85.11;100718.38;5069919;28;20202;-70
2021/09/11 02:27:32;;;;;;;12.10;10.90;;;;;;;19.41;84.85;100713.13;5063083;28;20233;-70
2021/09/11 02:29:59;;;;;;;11.23;10.13;;;;;;;19.41;84.98;100717.66;5069213;28;20202;-70
2021/09/11 02:32:26;;;;;;;11.37;10.27;;;;;;;19.40;84.93;100719.50;5068521;28;20232;-70
2021/09/11 02:34:53;;;;;;;11.80;10.57;;;;;;;19.39;84.97;100715.13;5069658;28;20200;-70
2021/09/11 02:37:19;;;;;;;11.40;10.40;;;;;;;19.40;85.03;100716.81;5068920;28;20844;-70
2021/09/11 02:39:46;;;;;;;13.03;11.70;;;;;;;19.39;85.03;100716.97;5062529;28;20611;-70
2021/09/11 02:42:12;;;;;;;12.47;11.37;;;;;;;19.39;85.16;100714.25;5062797;28;20234;-70
2021/09/11 02:44:39;;;;;;;11.63;10.43;;;;;;;19.38;84.81;100709.84;5065770;28;20218;-70
2021/09/11 02:47:06;;;;;;;12.23;10.97;;;;;;;19.36;85.03;100712.72;5067484;28;20202;-71
2021/09/11 02:49:34;;;;;;;12.23;11.03;;;;;;;19.34;84.98;100716.59;5071319;28;20210;-70
2021/09/11 02:52:00;;;;;;;11.93;10.70;;;;;;;19.32;84.99;100711.34;5068641;28;20233;-70
2021/09/11 02:54:27;;;;;;;12.87;11.57;;;;;;;19.31;84.95;100701.53;5076669;28;20214;-70
2021/09/11 02:56:53;;;;;;;13.00;11.70;;;;;;;19.31;85.01;100706.09;5066444;28;20211;-69
2021/09/11 02:59:20;;;;;;;12.97;11.77;;;;;;;19.29;84.98;100697.28;5067191;28;20225;-70
2021/09/11 03:01:46;;;;;;;13.17;11.77;;;;;;;19.28;84.90;100707.25;5088850;22;20223;-73
2021/09/11 03:04:13;;;;;;;14.43;12.87;;;;;;;19.27;85.25;100710.09;5049475;28;20199;-74
2021/09/11 03:06:41;;;;;;;14.63;12.13;;;;;;;19.25;85.04;100710.22;5048433;28;20219;-74
2021/09/11 03:09:07;;;;;;;15.23;13.63;;;;;;;19.24;85.27;100710.38;5054406;28;20658;-73
2021/09/11 03:11:34;;;;;;;16.90;13.77;;;;;;;19.25;85.12;100712.09;5052865;28;20232;-74
2021/09/11 03:14:00;;;;;;;15.23;13.63;;;;;;;19.23;85.23;100705.97;5042198;28;20583;-73
2021/09/11 03:16:27;;;;;;;16.70;14.30;;;;;;;19.22;84.97;100710.53;5049349;28;20207;-74
2021/09/11 03:18:53;;;;;;;14.97;13.40;;;;;;;19.22;84.90;100717.78;5058982;28;20200;-73
2021/09/11 03:21:20;;;;;;;15.27;13.73;;;;;;;19.21;85.01;100705.28;5053895;28;20223;-75
2021/09/11 03:23:48;;;;;;;14.80;13.30;;;;;;;19.20;84.97;100707.13;5043708;28;20221;-76
2021/09/11 03:26:14;;;;;;;14.93;13.33;;;;;;;19.19;84.96;100704.56;5046676;28;20657;-76
2021/09/11 03:28:41;;;;;;;15.93;14.23;;;;;;;19.18;84.96;100698.31;5048411;28;20599;-79
2021/09/11 03:31:07;;;;;;;16.23;14.53;;;;;;;19.17;84.91;100703.91;5059571;28;20194;-74
2021/09/11 03:33:34;;;;;;;15.23;13.63;;;;;;;19.15;85.10;100698.66;5053654;28;20270;-74
2021/09/11 03:36:00;;;;;;;16.90;14.40;;;;;;;19.15;84.88;100701.34;5050382;28;20209;-75
2021/09/11 03:38:27;;;;;;;15.37;13.77;;;;;;;19.14;84.94;100702.34;5057964;28;20216;-74
2021/09/11 03:40:54;;;;;;;15.33;13.70;;;;;;;19.13;85.08;100697.09;5057236;28;20224;-73
2021/09/11 03:43:21;;;;;;;15.20;13.60;;;;;;;19.12;84.74;100701.66;5055857;28;20224;-74
2021/09/11 03:45:48;;;;;;;16.33;14.67;;;;;;;19.10;84.79;100698.25;5048305;28;20208;-74
2021/09/11 03:48:14;;;;;;;18.73;16.73;;;;;;;19.09;84.92;100693.84;5043073;28;20213;-77
2021/09/11 03:50:41;;;;;;;18.30;15.43;;;;;;;19.09;85.00;100691.16;5049330;28;20206;-75
2021/09/11 03:53:07;;;;;;;17.23;15.50;;;;;;;19.06;84.92;100695.00;5050568;28;20238;-74
2021/09/11 03:55:34;;;;;;;17.23;15.40;;;;;;;19.05;84.88;100705.94;5050099;28;20210;-74
2021/09/11 03:58:02;;;;;;;16.10;14.57;;;;;;;19.02;84.92;100696.28;5051771;28;20206;-74
2021/09/11 04:00:28;;;;;;;17.13;15.33;;;;;;;19.02;84.74;100700.84;5057851;28;20228;-73
2021/09/11 04:02:55;;;;;;;16.20;14.50;;;;;;;19.02;84.96;100706.25;5050921;28;20704;-73
2021/09/11 04:05:21;;;;;;;13.87;12.37;;;;;;;19.00;84.97;100708.22;5054648;28;20206;-76
2021/09/11 04:07:48;;;;;;;13.03;11.73;;;;;;;18.99;84.76;100711.94;5052574;28;20211;-74
2021/09/11 04:10:14;;;;;;;12.47;11.17;;;;;;;18.99;85.21;100714.63;5055094;28;20203;-74
2021/09/11 04:12:41;;;;;;;12.03;10.47;;;;;;;18.97;85.02;100713.97;5050068;28;20605;-73
2021/09/11 04:15:10;;;;;;;13.00;11.40;;;;;;;18.96;85.15;100712.25;5048899;28;20209;-76
2021/09/11 04:17:36;;;;;;;12.90;11.60;;;;;;;18.95;85.26;100705.16;5041185;28;20262;-75
2021/09/11 04:20:03;;;;;;;13.37;11.80;;;;;;;18.95;85.29;100708.72;5060223;28;20226;-73
2021/09/11 04:22:29;;;;;;;12.43;11.23;;;;;;;18.95;85.05;100707.84;5055790;28;20225;-75
2021/09/11 04:24:56;;;;;;;12.93;11.07;;;;;;;18.94;85.18;100708.84;5058433;28;20210;-75
2021/09/11 04:27:23;;;;;;;12.70;11.40;;;;;;;18.92;85.28;100709.00;5046246;28;20211;-75
2021/09/11 04:29:49;;;;;;;11.97;10.77;;;;;;;18.92;85.00;100708.16;5051791;28;20204;-74
2021/09/11 04:32:17;;;;;;;13.23;11.67;;;;;;;18.92;85.09;100705.44;5050070;28;20702;-77
2021/09/11 04:34:43;;;;;;;10.63;9.63;;;;;;;18.89;85.10;100709.28;5050632;28;20690;-75
2021/09/11 04:37:10;;;;;;;13.13;10.33;;;;;;;18.89;85.11;100711.13;5058178;28;20211;-75
2021/09/11 04:39:36;;;;;;;12.87;9.50;;;;;;;18.87;85.14;100707.75;5051950;28;20242;-74
2021/09/11 04:42:03;;;;;;;11.27;9.97;;;;;;;18.84;85.13;100710.72;5053031;28;20220;-74
2021/09/11 04:44:30;;;;;;;10.47;9.37;;;;;;;18.81;85.28;100709.16;5055762;28;20215;-76
2021/09/11 04:46:56;;;;;;;11.07;9.57;;;;;;;18.80;85.29;100712.91;5051739;28;20209;-75
2021/09/11 04:49:24;;;;;;;9.97;8.97;;;;;;;18.80;85.35;100712.06;5052521;28;20586;-75
2021/09/11 04:51:51;;;;;;;10.73;9.07;;;;;;;18.79;85.19;100715.75;5055567;28;20225;-74
2021/09/11 04:54:17;;;;;;;10.13;9.13;;;;;;;18.77;85.35;100713.19;5058179;28;20205;-75
2021/09/11 04:56:44;;;;;;;9.53;8.50;;;;;;;18.77;85.53;100707.78;5058061;28;20212;-75
2021/09/11 04:59:10;;;;;;;9.60;8.67;;;;;;;18.77;85.54;100715.03;5055704;28;20226;-75
2021/09/11 05:01:37;;;;;;;9.50;8.60;;;;;;;18.76;85.65;100708.78;5052321;28;20321;-73
2021/09/11 05:04:04;;;;;;;9.13;8.23;;;;;;;18.78;85.42;100714.03;5051830;28;20227;-76
2021/09/11 05:06:32;;;;;;;9.17;8.23;;;;;;;18.77;85.61;100717.72;5042346;28;20212;-74
2021/09/11 05:08:58;;;;;;;9.03;8.13;;;;;;;18.77;85.39;100718.59;5045101;28;20206;-74
2021/09/11 05:11:25;;;;;;;9.90;8.90;;;;;;;18.78;85.40;100716.75;5047711;28;20686;-74
2021/09/11 05:13:51;;;;;;;9.17;8.23;;;;;;;18.80;85.35;100717.44;5047252;28;20214;-74
2021/09/11 05:16:18;;;;;;;10.20;8.27;;;;;;;18.79;85.43;100708.50;5051641;28;20198;-76
2021/09/11 05:18:44;;;;;;;9.60;8.57;;;;;;;18.79;85.27;100722.00;5052086;28;20210;-75
2021/09/11 05:21:11;;;;;;;8.10;7.20;;;;;;;18.80;85.43;100722.84;5056239;28;20225;-75
2021/09/11 05:23:39;;;;;;;9.20;8.00;;;;;;;18.79;85.34;100719.28;5054605;28;20711;-73
2021/09/11 05:26:06;;;;;;;8.60;7.70;;;;;;;18.80;85.17;100728.25;5059593;28;20211;-75
2021/09/11 05:28:33;;;;;;;9.47;7.87;;;;;;;18.80;85.13;100725.53;5046049;28;20205;-72
2021/09/11 05:30:59;;;;;;;8.73;6.93;;;;;;;18.80;85.09;100728.25;5049907;28;20338;-73
2021/09/11 05:33:26;;;;;;;8.53;7.20;;;;;;;18.79;85.14;100732.78;5043093;28;20233;-75
2021/09/11 05:35:53;;;;;;;7.77;7.07;;;;;;;18.80;84.98;100728.25;5046194;28;20210;-75
2021/09/11 05:38:20;;;;;;;7.33;6.03;;;;;;;18.80;84.80;100733.63;5038106;28;20680;-78
2021/09/11 05:40:48;;;;;;;7.53;6.27;;;;;;;18.80;84.87;100729.09;5047714;28;20231;-75
2021/09/11 05:43:14;;;;;;;6.57;5.93;;;;;;;18.79;84.72;100737.31;5047171;28;20235;-74
2021/09/11 05:45:41;;;;;;;6.43;5.70;;;;;;;18.78;84.73;100736.47;5049022;28;20216;-74
2021/09/11 05:48:07;;;;;;;5.67;5.00;;;;;;;18.79;84.50;100743.56;5040749;28;20204;-75
2021/09/11 05:50:34;;;;;;;5.73;5.13;;;;;;;18.79;84.76;100745.41;5044967;28;20199;-74
2021/09/11 05:53:00;;;;;;;6.80;5.43;;;;;;;18.80;84.63;100744.44;5045455;28;20232;-77
2021/09/11 05:55:29;;;;;;;5.60;5.10;;;;;;;18.82;84.70;100754.03;5048242;28;20211;-75
2021/09/11 05:57:57;;;;;;;6.97;5.20;;;;;;;18.84;84.65;100753.91;5040505;28;20337;-74
2021/09/11 06:00:24;;;;;;;5.67;5.10;;;;;;;18.86;84.78;100746.50;5040754;28;20229;-73
2021/09/11 06:02:50;;;;;;;6.10;5.00;;;;;;;18.88;84.70;100749.91;5046140;28;20640;-74
2021/09/11 06:05:17;;;;;;;5.67;5.10;;;;;;;18.91;84.73;100757.72;5051580;28;20210;-74
2021/09/11 06:07:44;;;;;;;5.10;4.60;;;;;;;18.92;84.52;100759.44;5041236;28;20209;-75
2021/09/11 06:10:11;;;;;;;5.13;4.40;;;;;;;18.94;84.43;100765.53;5041464;28;20590;-75
2021/09/11 06:12:38;;;;;;;5.03;4.30;;;;;;;18.95;84.46;100761.84;5042616;28;20222;-73
2021/09/11 06:15:07;;;;;;;4.40;4.00;;;;;;;18.96;84.35;100758.13;5039256;28;20214;-72
2021/09/11 06:17:34;;;;;;;5.33;4.50;;;;;;;18.99;84.25;100760.50;5039146;28;20898;-71
2021/09/11 06:20:01;;;;;;;4.70;4.30;;;;;;;19.00;84.36;100767.63;5043928;28;20701;-76
2021/09/11 06:22:27;;;;;;;5.77;4.70;;;;;;;19.02;84.31;100765.63;5040682;28;20332;-75
2021/09/11 06:24:54;;;;;;;4.63;4.23;;;;;;;19.04;84.25;100763.63;5045299;28;20207;-76
2021/09/11 06:27:21;;;;;;;6.40;4.37;;;;;;;19.04;84.18;100775.28;5044309;28;20202;-77
2021/09/11 06:29:47;;;;;;;4.97;4.57;;;;;;;19.06;83.90;100767.88;5036684;28;20216;-75
2021/09/11 06:32:15;;;;;;;5.30;4.73;;;;;;;19.08;84.20;100775.84;5045368;28;20229;-72
2021/09/11 06:34:42;;;;;;;6.67;5.97;;;;;;;19.11;84.11;100772.84;5050815;28;20592;-75
2021/09/11 06:37:08;;;;;;;7.07;6.37;;;;;;;19.13;83.80;100768.16;5051575;28;20211;-75
2021/09/11 06:39:35;;;;;;;7.93;6.63;;;;;;;19.15;84.08;100763.44;5051690;28;20204;-75
2021/09/11 06:42:01;;;;;;;8.07;6.80;;;;;;;19.18;83.82;100765.81;5049053;28;20239;-74
2021/09/11 06:44:28;;;;;;;7.93;7.10;;;;;;;19.20;83.89;100762.97;5045780;28;20209;-74
2021/09/11 06:46:54;;;;;;;7.70;7.00;;;;;;;19.23;83.74;100768.09;5052374;28;20666;-75
2021/09/11 06:49:22;;;;;;;6.47;5.87;;;;;;;19.25;83.63;100766.94;5055223;28;20211;-75
2021/09/11 06:51:49;;;;;;;7.37;6.67;;;;;;;19.26;83.48;100765.09;5049113;28;20246;-76
2021/09/11 06:54:15;;;;;;;7.37;6.67;;;;;;;19.28;83.84;100766.66;5051989;28;20210;-74
2021/09/11 06:56:42;;;;;;;8.10;7.30;;;;;;;19.30;83.40;100764.66;5053726;28;20204;-73
2021/09/11 06:59:08;;;;;;;7.20;6.50;;;;;;;19.34;83.54;100770.59;5052142;28;20211;-74
2021/09/11 07:01:35;;;;;;;7.93;7.07;;;;;;;19.36;83.51;100765.88;5049187;28;20244;-74
2021/09/11 07:04:01;;;;;;;8.03;7.10;;;;;;;19.39;83.37;100765.56;5047636;28;20201;-76
2021/09/11 07:06:29;;;;;;;8.67;7.87;;;;;;;19.41;83.03;100769.84;5043178;28;20207;-76
2021/09/11 07:08:55;;;;;;;10.97;8.33;;;;;;;19.43;83.23;100765.13;5040301;28;20700;-75
2021/09/11 07:11:22;;;;;;;10.47;9.37;;;;;;;19.49;83.22;100774.50;5043682;28;20223;-77
2021/09/11 07:13:48;;;;;;;9.27;8.30;;;;;;;19.52;83.04;100782.34;5043213;28;20596;-76
2021/09/11 07:16:15;;;;;;;13.90;9.27;;;;;;;19.55;83.01;100783.84;5042650;28;20672;-78
2021/09/11 07:18:42;;;;;;;8.80;7.90;;;;;;;19.57;82.79;100781.84;5037260;28;20565;-76
2021/09/11 07:21:08;;;;;;;9.20;8.30;;;;;;;19.60;82.58;100784.25;5037945;28;20238;-76
2021/09/11 07:23:37;;;;;;;8.63;7.83;;;;;;;19.63;82.78;100782.09;5042733;28;20259;-74
2021/09/11 07:26:03;;;;;;;11.00;8.47;;;;;;;19.68;82.62;100793.31;5036213;28;20203;-74
2021/09/11 07:28:30;;;;;;;11.23;9.00;;;;;;;19.71;82.25;100792.13;5038080;28;20202;-74
2021/09/11 07:30:56;;;;;;;9.07;8.20;;;;;;;19.73;82.13;100801.78;5041273;28;20218;-74
2021/09/11 07:33:23;;;;;;;10.47;9.37;;;;;;;19.73;81.91;100798.25;5040753;28;20228;-74
2021/09/11 07:35:49;;;;;;;11.83;9.27;;;;;;;19.77;81.95;100794.25;5039267;28;20210;-76
2021/09/11 07:38:16;;;;;;;10.87;8.67;;;;;;;19.81;81.83;100805.59;5042354;28;20670;-79
2021/09/11 07:40:44;;;;;;;20.03;9.30;;;;;;;19.84;81.83;100800.75;5036813;28;20733;-75
2021/09/11 07:43:11;;;;;;;13.60;8.33;;;;;;;19.89;81.87;100806.50;5042377;28;20237;-75
2021/09/11 07:45:38;;;;;;;8.87;7.67;;;;;;;19.95;81.67;100805.91;5035340;28;20208;-74
2021/09/11 07:48:05;;;;;;;12.00;8.90;;;;;;;20.02;81.86;100808.88;5034667;28;20285;-75
2021/09/11 07:50:35;;;;;;;12.57;10.47;;;;;;;20.05;81.69;100812.13;5040655;28;20207;-75
2021/09/11 07:53:01;;;;;;;11.97;10.03;;;;;;;20.12;81.45;100804.22;5039237;28;20227;-74
2021/09/11 07:55:28;;;;;;;12.33;10.23;;;;;;;20.16;81.25;100804.75;5040709;28;20599;-74
2021/09/11 07:57:56;;;;;;;17.37;9.90;;;;;;;20.22;81.00;100802.28;5042769;28;20598;-74
2021/09/11 08:00:22;;;;;;;9.83;8.83;;;;;;;20.27;81.04;100813.47;5040920;28;20592;-76
2021/09/11 08:02:49;;;;;;;10.07;9.07;;;;;;;20.32;80.83;100811.16;5040068;28;20242;-75
2021/09/11 08:05:15;;;;;;;10.80;9.70;;;;;;;20.38;80.59;100817.84;5042003;28;20208;-73
2021/09/11 08:07:42;;;;;;;12.10;9.93;;;;;;;20.42;80.61;100820.06;5046891;28;20212;-77
2021/09/11 08:10:09;;;;;;;13.60;10.87;;;;;;;20.48;80.46;100810.47;5050298;28;20208;-74
2021/09/11 08:12:36;;;;;;;16.20;11.93;;;;;;;20.53;79.76;100816.28;5048887;28;21073;-75
2021/09/11 08:15:05;;;;;;;16.33;13.17;;;;;;;20.56;79.27;100824.06;5044320;28;20206;-76
2021/09/11 08:17:32;;;;;;;16.08;13.32;;;;;;;20.60;78.93;100816.50;5048855;28;20240;-74
2021/09/11 08:19:58;;;;;;;14.70;12.53;;;;;;;20.62;78.49;100822.56;5048889;28;20204;-75
2021/09/11 08:22:25;;;;;;;12.73;11.40;;;;;;;20.66;78.07;100815.84;5053232;28;20239;-75
2021/09/11 08:24:53;;;;;;;17.30;12.60;;;;;;;20.72;77.96;100812.53;5050214;28;20209;-75
2021/09/11 08:27:19;;;;;;;14.23;11.53;;;;;;;20.83;78.13;100816.81;5046937;28;20205;-75
2021/09/11 08:29:46;;;;;;;14.57;12.30;;;;;;;20.92;77.57;100821.28;5053377;28;20220;-78
2021/09/11 08:32:14;;;;;;;14.30;12.43;;;;;;;21.02;77.12;100822.00;5046049;28;20237;-76
2021/09/11 08:34:40;;;;;;;13.55;11.60;;;;;;;21.16;76.90;100821.41;5052048;28;20209;-76
2021/09/11 08:37:07;;;;;;;15.25;12.02;;;;;;;21.25;76.44;100825.06;5039964;28;20697;-75
2021/09/11 08:39:33;;;;;;;15.55;11.32;;;;;;;21.34;75.82;100824.91;5047511;28;20213;-76
2021/09/11 08:42:00;;;;;;;13.63;12.15;;;;;;;21.44;75.89;100831.06;5047369;28;20228;-78
2021/09/11 08:44:28;;;;;;;15.00;11.77;;;;;;;21.57;75.16;100838.75;5049194;28;20205;-77
2021/09/11 08:46:55;;;;;;;13.38;11.48;;;;;;;21.69;74.66;100834.69;5050069;28;20212;-77
2021/09/11 08:49:23;;;;;;;13.05;11.65;;;;;;;21.77;74.21;100840.16;5046554;28;20210;-76
2021/09/11 08:51:50;;;;;;;13.63;11.45;;;;;;;21.79;73.43;100842.72;5047514;28;20229;-76
2021/09/11 08:54:19;;;;;;;13.88;11.43;;;;;;;21.78;73.08;100843.72;5047993;28;20213;-76
2021/09/11 08:56:47;;;;;;;13.10;11.63;;;;;;;21.78;72.75;100857.28;5050914;28;20209;-75
2021/09/11 08:59:16;;;;;;;16.25;11.27;;;;;;;21.79;72.76;100850.84;5045193;28;20217;-77
2021/09/11 09:01:44;;;;;;;14.43;11.52;;;;;;;21.77;72.57;100859.16;5054027;22;20726;-89
2021/09/11 09:04:11;;;;;;;16.73;12.50;;;;;;;21.76;72.37;100860.16;5057436;28;20221;-86
2021/09/11 09:06:39;;;;;;;15.38;13.73;;;;;;;21.76;72.11;100859.31;5069472;28;20208;-85
2021/09/11 09:09:09;;;;;;;23.67;15.18;;;;;;;21.79;71.92;100850.84;5072307;28;20203;-86
2021/09/11 09:11:37;;;;;;;19.00;15.90;;;;;;;21.85;71.71;100844.78;5072175;28;20235;-85
2021/09/11 09:14:07;;;;;;;19.17;15.30;;;;;;;21.94;71.38;100851.06;5059154;28;20225;-86
2021/09/11 09:16:36;;;;;;;16.45;14.02;;;;;;;21.98;70.60;100847.00;5061377;28;20224;-85
2021/09/11 09:19:06;;;;;;;19.42;14.55;;;;;;;22.00;69.62;100848.56;5055686;28;20201;-86
2021/09/11 09:21:33;;;;;;;15.25;13.23;;;;;;;21.99;69.55;100849.56;5062468;28;20348;-86
2021/09/11 09:24:04;;;;;;;17.60;14.35;;;;;;;21.99;69.16;100852.25;5058302;28;20562;-85
2021/09/11 09:26:30;;;;;;;13.60;12.20;;;;;;;22.02;68.89;100851.13;5055953;28;20205;-85
2021/09/11 09:29:06;;;;;;;16.67;14.85;;;;;;;22.04;68.35;100851.78;5062982;28;20345;-85
2021/09/11 09:31:34;;;;;;;16.33;14.10;;;;;;;22.06;68.41;100855.16;5064926;28;20312;-84
2021/09/11 09:34:00;;;;;;;15.60;13.48;;;;;;;22.09;68.44;100854.84;5059251;28;20656;-84
2021/09/11 09:36:47;;;;;;;15.93;13.13;;;;;;;22.15;68.55;100846.91;5061566;28;20271;-83
2021/09/11 09:39:15;;;;;;;15.25;13.73;;;;;;;22.18;67.82;100851.16;5054961;28;20275;-83
2021/09/11 09:41:47;;;;;;;14.48;12.90;;;;;;;22.23;67.98;100854.19;5062160;28;20245;-85
2021/09/11 09:44:18;;;;;;;17.00;13.43;;;;;;;22.32;67.65;100841.50;5063407;28;20208;-84
2021/09/11 09:46:46;;;;;;;13.50;12.10;;;;;;;22.36;67.48;100848.28;5062241;28;20299;-83
2021/09/11 09:49:20;;;;;;;15.13;12.88;;;;;;;22.39;66.88;100834.38;5058491;28;20201;-84
2021/09/11 09:51:48;;;;;;;15.13;12.57;;;;;;;22.43;66.68;100827.56;5059423;28;20225;-83
2021/09/11 09:54:17;;;;;;;14.32;12.90;;;;;;;22.51;66.93;100831.16;5056684;28;20655;-85
2021/09/11 09:56:44;;;;;;;16.00;13.32;;;;;;;22.61;66.91;100828.25;5055901;28;20216;-85
2021/09/11 09:59:11;;;;;;;13.60;12.20;;;;;;;22.68;66.47;100840.13;5050502;28;20202;-84
2021/09/11 10:01:39;;;;;;;15.85;12.30;;;;;;;22.82;66.63;100838.63;5042260;28;20225;-83
2021/09/11 10:04:23;;;;;;;13.57;11.90;;;;;;;22.97;66.31;100836.88;5045235;28;20210;-85
2021/09/11 10:06:53;;;;;;;12.60;11.30;;;;;;;23.14;66.37;100829.53;5050988;28;20208;-85
2021/09/11 10:09:26;;;;;;;12.55;11.25;;;;;;;23.31;65.74;100830.34;5050787;28;20240;-84
2021/09/11 10:11:54;;;;;;;12.98;10.75;;;;;;;23.38;64.54;100826.75;5048507;28;20578;-85
2021/09/11 10:14:22;;;;;;;13.43;12.13;;;;;;;23.50;64.29;100828.06;5050551;28;20308;-85
2021/09/11 10:17:02;;;;;;;12.70;11.40;;;;;;;23.61;64.42;100824.16;5047148;28;20205;-84
2021/09/11 10:19:30;;;;;;;16.23;11.48;;;;;;;23.71;63.61;100822.03;5044253;28;20209;-84
2021/09/11 10:22:22;;;;;;;11.95;10.60;;;;;;;23.77;63.03;100826.78;5042337;28;20229;-83
2021/09/11 10:24:51;;;;;;;11.60;10.30;;;;;;;23.83;62.49;100826.03;5043730;28;20238;-82
2021/09/11 10:27:23;;;;;;;13.20;11.85;;;;;;;23.88;61.89;100820.06;5041816;28;20256;-82
2021/09/11 10:29:58;;;;;;;11.63;10.32;;;;;;;23.97;61.75;100820.88;5043300;28;20209;-82
2021/09/11 10:32:37;;;;;;;11.55;10.25;;;;;;;24.03;61.49;100818.28;5041738;28;20233;-82
2021/09/11 10:35:06;;;;;;;12.02;10.93;;;;;;;24.03;59.99;100818.28;5048186;28;20629;-82
2021/09/11 10:37:39;;;;;;;12.07;11.00;;;;;;;24.06;59.49;100819.78;5049256;28;20236;-82
2021/09/11 10:40:33;;;;;;;13.95;12.40;;;;;;;24.08;58.92;100818.59;5044107;28;20247;-82
2021/09/11 10:43:19;;;;;;;14.38;12.75;;;;;;;24.07;58.77;100819.63;5031084;28;20308;-83
2021/09/11 10:45:57;;;;;;;13.13;11.82;;;;;;;24.06;58.58;100825.22;5046455;28;20648;-82
2021/09/11 10:48:56;;;;;;;13.38;12.02;;;;;;;24.05;58.52;100827.09;5044485;28;20281;-82
2021/09/11 10:51:34;;;;;;;14.43;12.95;;;;;;;24.05;58.30;100827.09;5047893;28;20299;-82
2021/09/11 10:54:28;;;;;;;14.65;13.27;;;;;;;24.05;58.13;100832.56;5048901;28;20251;-81
2021/09/11 10:57:05;;;;;;;14.15;12.68;;;;;;;24.06;58.11;100823.38;5052170;28;20232;-83
2021/09/11 10:59:37;;;;;;;13.43;12.32;;;;;;;24.09;57.79;100820.28;5047405;28;20208;-82
2021/09/11 11:02:10;;;;;;;14.25;12.77;;;;;;;24.15;57.66;100822.28;5048865;28;20709;-83
2021/09/11 11:04:40;;;;;;;13.45;12.20;;;;;;;24.26;57.23;100823.78;5053108;28;20632;-82
2021/09/11 11:07:08;;;;;;;13.18;11.98;;;;;;;24.29;56.71;100828.00;5051304;28;20280;-82
2021/09/11 11:09:37;;;;;;;12.10;11.00;;;;;;;24.28;56.72;100819.00;5047443;28;20290;-82
2021/09/11 11:12:12;;;;;;;12.13;10.93;;;;;;;24.32;56.12;100823.06;5045804;28;20771;-82
2021/09/11 11:14:45;;;;;;;12.45;11.25;;;;;;;24.30;55.72;100813.38;5042421;28;20582;-80
2021/09/11 11:17:12;;;;;;;11.88;10.80;;;;;;;24.28;55.70;100821.72;5040397;28;20194;-81